createdAt,value
2023-02-01T00:00:53.492Z,45.68
2023-02-01T00:03:20.500Z,45.95
2023-02-01T00:05:59.716Z,46.59
2023-02-01T00:08:27.477Z,45.81
2023-02-01T00:11:10.939Z,46.67
2023-02-01T00:13:39.895Z,46.10
2023-02-01T00:16:17.560Z,46.26
2023-02-01T00:18:45.783Z,45.83
2023-02-01T00:21:14.185Z,46.29
2023-02-01T00:23:41.758Z,45.92
2023-02-01T00:26:15.135Z,46.02
2023-02-01T00:28:42.601Z,46.18
2023-02-01T00:31:09.586Z,46.92
2023-02-01T00:33:36.605Z,46.29
2023-02-01T00:36:08.492Z,46.26
2023-02-01T00:38:38.446Z,47.23
2023-02-01T00:41:13.437Z,46.50
2023-02-01T00:43:40.875Z,46.36
2023-02-01T00:46:08.260Z,46.93
2023-02-01T00:48:35.752Z,46.62
2023-02-01T00:51:04.876Z,46.72
2023-02-01T00:53:32.270Z,47.09
2023-02-01T00:55:59.709Z,45.96
2023-02-01T00:58:27.748Z,46.47
2023-02-01T01:01:14.869Z,47.16
2023-02-01T01:03:44.727Z,47.18
2023-02-01T01:06:14.222Z,46.79
2023-02-01T01:08:42.102Z,47.17
2023-02-01T01:11:16.015Z,46.78
2023-02-01T01:13:43.778Z,47.24
2023-02-01T01:16:12.080Z,47.32
2023-02-01T01:18:40.807Z,47.30
2023-02-01T01:21:08.948Z,47.07
2023-02-01T01:23:37.348Z,46.81
2023-02-01T01:26:18.790Z,47.37
2023-02-01T01:28:46.677Z,46.60
2023-02-01T01:31:16.107Z,47.53
2023-02-01T01:33:44.989Z,47.47
2023-02-01T01:36:13.328Z,47.80
2023-02-01T01:38:41.713Z,48.01
2023-02-01T01:41:12.985Z,47.73
2023-02-01T01:43:57.539Z,47.73
2023-02-01T01:46:32.429Z,47.87
2023-02-01T01:49:08.320Z,48.34
2023-02-01T01:51:40.372Z,49.06
2023-02-01T01:54:18.396Z,48.98
2023-02-01T01:56:50.166Z,48.39
2023-02-01T01:59:17.812Z,48.36
2023-02-01T02:01:45.310Z,48.56
2023-02-01T02:04:12.535Z,48.78
2023-02-01T02:07:03.322Z,49.20
2023-02-01T02:09:33.628Z,48.79
2023-02-01T02:12:00.631Z,48.79
2023-02-01T02:14:31.146Z,48.43
2023-02-01T02:17:16.830Z,49.27
2023-02-01T02:20:10.767Z,48.92
2023-02-01T02:23:13.179Z,49.83
2023-02-01T02:26:21.204Z,50.04
2023-02-01T02:28:51.868Z,49.44
2023-02-01T02:31:36.110Z,49.95
2023-02-01T02:34:40.036Z,51.28
2023-02-01T02:37:19.374Z,50.67
2023-02-01T02:39:58.486Z,50.20
2023-02-01T02:42:58.188Z,51.17
2023-02-01T02:46:02.032Z,51.18
2023-02-01T02:48:55.454Z,51.30
2023-02-01T02:51:48.051Z,50.87
2023-02-01T02:54:39.025Z,51.04
2023-02-01T02:57:37.724Z,51.90
2023-02-01T03:00:28.234Z,51.52
2023-02-01T03:03:14.297Z,51.19
2023-02-01T03:05:45.741Z,51.31
2023-02-01T03:08:26.673Z,51.69
2023-02-01T03:11:16.533Z,52.36
2023-02-01T03:13:56.198Z,51.72
2023-02-01T03:16:33.117Z,52.08
2023-02-01T03:19:13.239Z,51.50
2023-02-01T03:21:51.309Z,51.17
2023-02-01T03:24:21.806Z,51.47
2023-02-01T03:27:01.720Z,52.18
2023-02-01T03:29:38.456Z,51.17
2023-02-01T03:32:06.224Z,51.52
2023-02-01T03:34:33.774Z,51.20
2023-02-01T03:37:06.002Z,51.86
2023-02-01T03:39:43.567Z,51.71
2023-02-01T03:42:27.014Z,52.62
2023-02-01T03:45:11.348Z,52.79
2023-02-01T03:47:46.445Z,51.80
2023-02-01T03:50:17.821Z,51.84
2023-02-01T03:53:08.971Z,52.88
2023-02-01T03:55:37.682Z,52.06
2023-02-01T03:58:19.519Z,52.32
2023-02-01T04:00:58.337Z,52.34
2023-02-01T04:03:26.646Z,51.26
2023-02-01T04:05:54.751Z,51.98
2023-02-01T04:08:25.790Z,51.29
2023-02-01T04:10:52.772Z,51.28
2023-02-01T04:13:19.737Z,50.86
2023-02-01T04:15:50.872Z,51.67
2023-02-01T04:18:17.973Z,51.35
2023-02-01T04:20:45.479Z,50.71
2023-02-01T04:23:12.511Z,51.27
2023-02-01T04:25:39.505Z,51.32
2023-02-01T04:28:07.988Z,51.11
2023-02-01T04:30:35.582Z,51.03
2023-02-01T04:33:04.761Z,50.66
2023-02-01T04:35:31.709Z,51.18
2023-02-01T04:37:58.993Z,50.60
2023-02-01T04:40:26.102Z,51.00
2023-02-01T04:42:53.053Z,51.06
2023-02-01T04:45:20.065Z,51.52
2023-02-01T04:47:47.090Z,51.28
2023-02-01T04:50:14.116Z,51.19
2023-02-01T04:52:41.687Z,51.45
2023-02-01T04:55:09.114Z,51.64
2023-02-01T04:57:36.023Z,51.86
2023-02-01T05:00:03.777Z,51.75
2023-02-01T05:02:30.727Z,51.13
2023-02-01T05:04:57.716Z,51.28
2023-02-01T05:07:24.931Z,51.24
2023-02-01T05:09:52.226Z,51.04
2023-02-01T05:12:37.651Z,51.48
2023-02-01T05:15:05.272Z,51.44
2023-02-01T05:17:32.197Z,50.97
2023-02-01T05:19:59.115Z,50.70
2023-02-01T05:22:26.088Z,51.33
2023-02-01T05:24:53.027Z,51.00
2023-02-01T05:27:19.928Z,50.85
2023-02-01T05:29:46.841Z,51.08
2023-02-01T05:32:22.080Z,51.10
2023-02-01T05:34:50.280Z,51.16
2023-02-01T05:37:17.266Z,51.40
2023-02-01T05:39:44.197Z,51.58
2023-02-01T05:42:11.182Z,51.38
2023-02-01T05:44:38.224Z,51.57
2023-02-01T05:47:05.516Z,51.36
2023-02-01T05:49:32.418Z,51.79
2023-02-01T05:52:00.483Z,51.92
2023-02-01T05:54:28.074Z,51.86
2023-02-01T05:56:55.065Z,51.89
2023-02-01T05:59:22.084Z,51.92
2023-02-01T06:01:49.192Z,52.19
2023-02-01T06:04:16.155Z,51.83
2023-02-01T06:06:43.126Z,52.25
2023-02-01T06:09:11.590Z,52.29
2023-02-01T06:11:38.606Z,51.99
2023-02-01T06:14:05.666Z,52.19
2023-02-01T06:16:32.808Z,52.33
2023-02-01T06:18:59.894Z,52.67
2023-02-01T06:21:26.921Z,52.59
2023-02-01T06:23:55.127Z,52.24
2023-02-01T06:26:22.690Z,52.66
2023-02-01T06:28:50.413Z,53.05
2023-02-01T06:31:17.369Z,53.11
2023-02-01T06:33:44.563Z,52.71
2023-02-01T06:36:17.049Z,52.61
2023-02-01T06:38:44.023Z,52.54
2023-02-01T06:41:12.148Z,52.97
2023-02-01T06:43:39.575Z,53.61
2023-02-01T06:46:09.474Z,53.90
2023-02-01T06:48:36.621Z,54.03
2023-02-01T06:51:04.000Z,53.71
2023-02-01T06:57:01.749Z,53.93
2023-02-01T06:59:28.928Z,54.25
2023-02-01T07:01:55.983Z,54.42
2023-02-01T07:04:23.236Z,54.52
2023-02-01T07:06:50.192Z,54.19
2023-02-01T07:09:17.244Z,54.12
2023-02-01T07:11:45.176Z,54.05
2023-02-01T07:14:12.481Z,53.62
2023-02-01T07:16:39.537Z,53.84
2023-02-01T07:19:06.487Z,53.65
2023-02-01T07:21:33.422Z,52.91
2023-02-01T07:24:00.974Z,52.39
2023-02-01T07:26:27.979Z,51.68
2023-02-01T07:28:57.333Z,50.91
2023-02-01T07:31:26.430Z,50.00
2023-02-01T07:33:53.384Z,49.22
2023-02-01T07:36:20.444Z,48.16
2023-02-01T07:38:48.803Z,47.38
2023-02-01T07:41:16.689Z,46.60
2023-02-01T07:43:43.678Z,45.69
2023-02-01T07:46:11.491Z,44.85
2023-02-01T07:48:38.830Z,43.74
2023-02-01T07:51:09.579Z,42.52
2023-02-01T07:53:37.552Z,41.16
2023-02-01T07:56:05.426Z,40.60
2023-02-01T07:58:32.427Z,39.50
2023-02-01T08:01:17.773Z,38.66
2023-02-01T08:03:44.776Z,38.02
2023-02-01T08:06:11.738Z,37.51
2023-02-01T08:08:39.099Z,36.62
2023-02-01T08:11:08.025Z,35.77
2023-02-01T08:13:36.417Z,34.95
2023-02-01T08:16:06.363Z,34.34
2023-02-01T08:18:34.360Z,33.95
2023-02-01T08:21:05.530Z,32.85
2023-02-01T08:23:32.480Z,32.13
2023-02-01T08:26:14.596Z,31.37
2023-02-01T08:28:44.749Z,30.84
2023-02-01T08:31:15.964Z,29.86
2023-02-01T08:33:44.360Z,29.82
2023-02-01T08:36:12.541Z,29.62
2023-02-01T08:38:40.909Z,29.45
2023-02-01T08:41:13.502Z,28.11
2023-02-01T08:43:42.169Z,28.34
2023-02-01T08:46:10.626Z,28.44
2023-02-01T08:48:38.353Z,27.58
2023-02-01T08:51:07.445Z,26.30
2023-02-01T08:53:34.366Z,26.56
2023-02-01T08:56:01.931Z,26.25
2023-02-01T08:58:29.029Z,26.08
2023-02-01T09:00:56.578Z,25.83
2023-02-01T09:03:23.661Z,24.70
2023-02-01T09:05:51.416Z,24.73
2023-02-01T09:08:21.241Z,24.14
2023-02-01T09:10:48.266Z,23.67
2023-02-01T09:13:15.283Z,23.72
2023-02-01T09:15:42.124Z,22.96
2023-02-01T09:18:09.087Z,22.81
2023-02-01T09:20:37.848Z,22.60
2023-02-01T09:23:04.792Z,21.85
2023-02-01T09:25:31.672Z,21.99
2023-02-01T09:27:58.609Z,21.75
2023-02-01T09:30:25.908Z,21.41
2023-02-01T09:32:53.023Z,21.09
2023-02-01T09:35:19.922Z,21.36
2023-02-01T09:37:46.811Z,20.48
2023-02-01T09:40:18.199Z,20.22
2023-02-01T09:43:18.199Z,19.45
2023-02-01T09:45:54.264Z,19.74
2023-02-01T09:48:26.402Z,19.41
2023-02-01T09:50:59.008Z,18.52
2023-02-01T09:53:29.305Z,19.13
2023-02-01T09:56:04.133Z,17.94
2023-02-01T09:58:42.315Z,18.86
2023-02-01T10:01:35.880Z,17.58
2023-02-01T10:04:15.282Z,18.18
2023-02-01T10:06:49.125Z,18.03
2023-02-01T10:09:25.060Z,17.87
2023-02-01T10:11:58.016Z,17.82
2023-02-01T10:14:24.894Z,17.26
2023-02-01T10:17:33.160Z,16.87
2023-02-01T10:20:08.643Z,16.40
2023-02-01T10:23:23.055Z,16.18
2023-02-01T10:25:55.142Z,17.17
2023-02-01T10:28:24.206Z,17.66
2023-02-01T10:30:56.119Z,16.65
2023-02-01T10:33:33.524Z,16.47
2023-02-01T10:36:12.051Z,16.72
2023-02-01T10:38:39.043Z,17.07
2023-02-01T10:41:15.459Z,16.56
2023-02-01T10:43:43.790Z,17.00
2023-02-01T10:46:11.563Z,16.32
2023-02-01T10:48:39.673Z,16.87
2023-02-01T10:51:24.282Z,16.37
2023-02-01T10:54:03.039Z,16.29
2023-02-01T10:56:31.020Z,16.31
2023-02-01T10:59:07.509Z,16.67
2023-02-01T11:01:48.853Z,16.73
2023-02-01T11:04:21.473Z,16.62
2023-02-01T11:06:55.972Z,15.33
2023-02-01T11:09:25.692Z,15.97
2023-02-01T11:11:52.545Z,16.47
2023-02-01T11:14:21.792Z,16.01
2023-02-01T11:16:56.255Z,15.99
2023-02-01T11:19:23.112Z,16.57
2023-02-01T11:21:54.752Z,16.42
2023-02-01T11:24:32.792Z,15.71
2023-02-01T11:27:05.772Z,15.31
2023-02-01T11:29:39.308Z,15.96
2023-02-01T11:32:06.686Z,15.89
2023-02-01T11:34:45.223Z,15.09
2023-02-01T11:37:23.026Z,15.34
2023-02-01T11:39:59.671Z,16.00
2023-02-01T11:42:28.611Z,16.53
2023-02-01T11:45:22.108Z,17.29
2023-02-01T11:47:53.939Z,18.45
2023-02-01T11:50:35.937Z,19.29
2023-02-01T11:53:27.667Z,20.22
2023-02-01T11:56:13.120Z,21.30
2023-02-01T11:59:07.464Z,22.25
2023-02-01T12:01:43.822Z,23.16
2023-02-01T12:04:55.116Z,23.24
2023-02-01T12:07:57.527Z,24.21
2023-02-01T12:11:00.710Z,24.54
2023-02-01T12:13:39.626Z,24.87
2023-02-01T12:16:36.464Z,25.94
2023-02-01T12:19:12.321Z,26.24
2023-02-01T12:22:14.660Z,26.53
2023-02-01T12:24:56.064Z,26.07
2023-02-01T12:27:42.523Z,26.42
2023-02-01T12:30:51.980Z,26.54
2023-02-01T12:33:38.773Z,26.58
2023-02-01T12:36:22.901Z,26.72
2023-02-01T12:38:56.965Z,27.07
2023-02-01T12:41:51.599Z,26.91
2023-02-01T12:44:34.084Z,26.91
2023-02-01T12:47:13.884Z,26.77
2023-02-01T12:50:02.485Z,26.77
2023-02-01T12:52:38.873Z,27.20
2023-02-01T12:55:21.716Z,27.33
2023-02-01T12:57:56.859Z,27.35
2023-02-01T13:00:37.494Z,27.67
2023-02-01T13:03:29.451Z,27.55
2023-02-01T13:06:10.206Z,27.57
2023-02-01T13:08:49.228Z,27.63
2023-02-01T13:11:26.208Z,27.16
2023-02-01T13:13:56.175Z,27.47
2023-02-01T13:16:54.538Z,27.13
2023-02-01T13:19:51.736Z,27.07
2023-02-01T13:22:31.905Z,27.18
2023-02-01T13:25:03.409Z,27.53
2023-02-01T13:27:32.302Z,27.52
2023-02-01T13:30:06.698Z,27.72
2023-02-01T13:33:53.813Z,27.87
2023-02-01T13:36:40.678Z,28.04
2023-02-01T13:39:20.941Z,27.99
2023-02-01T13:41:56.078Z,28.20
2023-02-01T13:44:33.256Z,28.70
2023-02-01T13:47:04.066Z,28.77
2023-02-01T13:49:38.417Z,29.07
2023-02-01T13:52:06.465Z,28.81
2023-02-01T13:54:38.682Z,28.84
2023-02-01T13:57:28.462Z,28.76
2023-02-01T14:00:08.351Z,28.83
2023-02-01T14:02:41.500Z,29.03
2023-02-01T14:05:13.961Z,28.86
2023-02-01T14:08:08.877Z,29.38
2023-02-01T14:10:59.393Z,29.36
2023-02-01T14:13:38.484Z,29.54
2023-02-01T14:16:05.632Z,29.40
2023-02-01T14:18:38.966Z,29.76
2023-02-01T14:21:22.250Z,29.89
2023-02-01T14:24:04.143Z,29.47
2023-02-01T14:26:49.227Z,29.81
2023-02-01T14:29:23.567Z,30.09
2023-02-01T14:32:19.247Z,31.60
2023-02-01T14:35:00.517Z,35.18
2023-02-01T14:37:33.812Z,35.54
2023-02-01T14:40:24.011Z,36.66
2023-02-01T14:42:54.980Z,37.29
2023-02-01T14:45:23.535Z,37.50
2023-02-01T14:48:14.175Z,40.25
2023-02-01T14:50:47.395Z,39.56
2023-02-01T14:53:14.321Z,39.87
2023-02-01T14:55:47.890Z,40.78
2023-02-01T14:58:47.361Z,41.20
2023-02-01T15:01:32.064Z,41.65
2023-02-01T15:04:04.961Z,41.42
2023-02-01T15:06:52.569Z,42.09
2023-02-01T15:09:31.628Z,43.10
2023-02-01T15:12:13.711Z,43.01
2023-02-01T15:14:52.555Z,43.09
2023-02-01T15:17:27.995Z,43.01
2023-02-01T15:20:04.856Z,43.15
2023-02-01T15:22:35.956Z,43.04
2023-02-01T15:25:04.281Z,43.27
2023-02-01T15:27:33.257Z,43.93
2023-02-01T15:30:08.794Z,44.93
2023-02-01T15:32:41.552Z,45.67
2023-02-01T15:35:37.366Z,45.87
2023-02-01T15:38:25.739Z,45.36
2023-02-01T15:41:22.113Z,47.18
2023-02-01T15:43:54.971Z,46.49
2023-02-01T15:46:39.416Z,47.70
2023-02-01T15:49:21.938Z,46.46
2023-02-01T15:51:49.949Z,45.75
2023-02-01T15:54:21.275Z,46.56
2023-02-01T15:56:54.353Z,45.27
2023-02-01T15:59:25.884Z,45.48
2023-02-01T16:01:52.837Z,45.64
2023-02-01T16:04:22.022Z,45.47
2023-02-01T16:06:52.184Z,45.83
2023-02-01T16:09:22.592Z,45.69
2023-02-01T16:11:57.507Z,45.69
2023-02-01T16:14:25.722Z,45.04
2023-02-01T16:16:55.266Z,44.89
2023-02-01T16:19:24.418Z,44.71
2023-02-01T16:21:51.405Z,45.56
2023-02-01T16:24:18.283Z,45.04
2023-02-01T16:26:45.261Z,45.03
2023-02-01T16:29:12.368Z,44.99
2023-02-01T16:31:40.797Z,44.38
2023-02-01T16:34:12.005Z,44.29
2023-02-01T16:36:39.986Z,44.58
2023-02-01T16:39:12.182Z,44.28
2023-02-01T16:41:40.453Z,43.87
2023-02-01T16:44:08.033Z,43.91
2023-02-01T16:46:40.463Z,43.63
2023-02-01T16:49:16.326Z,44.24
2023-02-01T16:51:43.582Z,43.85
2023-02-01T16:54:11.572Z,43.52
2023-02-01T16:56:42.482Z,44.25
2023-02-01T16:59:09.801Z,45.21
2023-02-01T17:01:38.674Z,44.55
2023-02-01T17:04:05.743Z,44.46
2023-02-01T17:06:34.268Z,44.86
2023-02-01T17:09:03.331Z,44.70
2023-02-01T17:11:33.446Z,44.32
2023-02-01T17:14:20.842Z,44.75
2023-02-01T17:16:50.289Z,45.14
2023-02-01T17:19:24.660Z,44.58
2023-02-01T17:21:56.841Z,45.76
2023-02-01T17:24:35.767Z,46.09
2023-02-01T17:27:06.333Z,44.92
2023-02-01T17:29:33.916Z,45.43
2023-02-01T17:32:01.461Z,44.40
2023-02-01T17:34:28.855Z,44.87
2023-02-01T17:36:56.358Z,45.95
2023-02-01T17:39:41.922Z,45.79
2023-02-01T17:42:12.601Z,47.00
2023-02-01T17:44:39.605Z,46.27
2023-02-01T17:47:06.613Z,46.36
2023-02-01T17:49:35.992Z,46.39
2023-02-01T17:52:03.070Z,47.20
2023-02-01T17:54:30.212Z,46.37
2023-02-01T17:57:00.469Z,46.37
2023-02-01T17:59:27.893Z,48.06
2023-02-01T18:02:00.809Z,48.50
2023-02-01T18:04:28.431Z,46.92
2023-02-01T18:06:55.607Z,47.25
2023-02-01T18:09:23.086Z,47.60
2023-02-01T18:11:50.946Z,47.23
2023-02-01T18:14:18.230Z,47.09
2023-02-01T18:16:45.284Z,47.88
2023-02-01T18:19:12.387Z,47.45
2023-02-01T18:21:42.682Z,46.70
2023-02-01T18:24:13.455Z,47.79
2023-02-01T18:26:41.013Z,47.25
2023-02-01T18:29:08.095Z,47.27
2023-02-01T18:31:41.182Z,47.35
2023-02-01T18:34:10.734Z,47.27
2023-02-01T18:36:37.602Z,47.45
2023-02-01T18:39:04.698Z,47.13
2023-02-01T18:41:31.704Z,47.84
2023-02-01T18:43:58.608Z,46.93
2023-02-01T18:46:26.413Z,47.06
2023-02-01T18:48:55.279Z,47.03
2023-02-01T18:51:23.633Z,48.45
2023-02-01T18:53:51.774Z,48.60
2023-02-01T18:56:19.125Z,47.78
2023-02-01T18:58:46.593Z,47.94
2023-02-01T19:01:16.480Z,48.15
2023-02-01T19:03:45.791Z,48.50
2023-02-01T19:06:17.015Z,47.36
2023-02-01T19:08:48.112Z,48.41
2023-02-01T19:11:15.455Z,48.23
2023-02-01T19:13:42.747Z,48.47
2023-02-01T19:16:17.829Z,47.88
2023-02-01T19:18:45.204Z,48.97
2023-02-01T19:21:13.991Z,48.88
2023-02-01T19:23:44.248Z,48.87
2023-02-01T19:26:12.941Z,48.37
2023-02-01T19:28:40.474Z,49.52
2023-02-01T19:31:10.573Z,49.15
2023-02-01T19:33:39.686Z,49.12
2023-02-01T19:36:09.524Z,48.60
2023-02-01T19:38:37.227Z,49.14
2023-02-01T19:41:04.310Z,48.64
2023-02-01T19:43:32.749Z,48.28
2023-02-01T19:46:01.171Z,48.37
2023-02-01T19:48:31.151Z,48.42
2023-02-01T19:50:59.367Z,48.46
2023-02-01T19:53:28.036Z,48.32
2023-02-01T19:55:57.867Z,47.46
2023-02-01T19:58:25.900Z,47.03
2023-02-01T20:00:54.334Z,46.70
2023-02-01T20:03:22.248Z,46.89
2023-02-01T20:05:56.798Z,46.60
2023-02-01T20:08:24.436Z,46.43
2023-02-01T20:10:51.672Z,46.48
2023-02-01T20:13:18.909Z,46.28
2023-02-01T20:15:46.173Z,46.32
2023-02-01T20:21:00.652Z,46.76
2023-02-01T20:22:37.562Z,46.50
2023-02-01T20:25:04.912Z,46.35
2023-02-01T20:27:32.720Z,46.33
2023-02-01T20:29:59.649Z,46.56
2023-02-01T20:32:26.877Z,46.26
2023-02-01T20:34:56.174Z,46.17
2023-02-01T20:37:43.645Z,46.47
2023-02-01T20:40:12.114Z,45.95
2023-02-01T20:42:39.177Z,46.58
2023-02-01T20:45:06.615Z,46.41
2023-02-01T20:47:33.736Z,45.95
2023-02-01T20:50:04.248Z,45.88
2023-02-01T20:52:33.610Z,46.40
2023-02-01T20:55:00.729Z,45.52
2023-02-01T20:57:28.080Z,46.12
2023-02-01T20:59:55.051Z,45.78
2023-02-01T21:02:22.240Z,45.72
2023-02-01T21:04:49.225Z,46.18
2023-02-01T21:07:16.146Z,46.09
2023-02-01T21:09:43.471Z,46.07
2023-02-01T21:12:11.132Z,45.77
2023-02-01T21:14:38.242Z,46.10
2023-02-01T21:17:05.437Z,45.79
2023-02-01T21:19:43.531Z,46.33
2023-02-01T21:22:12.273Z,46.29
2023-02-01T21:24:41.225Z,45.81
2023-02-01T21:27:09.658Z,46.39
2023-02-01T21:29:36.576Z,46.75
2023-02-01T21:32:05.025Z,46.60
2023-02-01T21:34:31.929Z,46.85
2023-02-01T21:36:58.864Z,46.59
2023-02-01T21:39:28.682Z,46.82
2023-02-01T21:42:15.027Z,47.03
2023-02-01T21:44:42.552Z,47.01
2023-02-01T21:47:11.085Z,47.28
2023-02-01T21:49:38.609Z,46.71
2023-02-01T21:52:11.851Z,46.96
2023-02-01T21:54:39.467Z,46.64
2023-02-01T21:57:12.100Z,47.38
2023-02-01T21:59:44.104Z,46.90
2023-02-01T22:02:16.320Z,47.30
2023-02-01T22:04:44.395Z,46.92
2023-02-01T22:07:12.042Z,47.04
2023-02-01T22:09:39.216Z,46.99
2023-02-01T22:12:06.309Z,46.58
2023-02-01T22:14:33.592Z,46.94
2023-02-01T22:17:00.841Z,46.78
2023-02-01T22:19:27.909Z,47.06
2023-02-01T22:21:55.513Z,46.57
2023-02-01T22:24:22.787Z,46.95
2023-02-01T22:26:51.265Z,46.81
2023-02-01T22:29:24.133Z,47.31
2023-02-01T22:31:51.206Z,47.34
2023-02-01T22:34:18.542Z,47.16
2023-02-01T22:36:49.127Z,47.37
2023-02-01T22:39:16.290Z,47.28
2023-02-01T22:41:44.946Z,47.42
2023-02-01T22:44:12.105Z,47.00
2023-02-01T22:46:40.217Z,47.18
2023-02-01T22:49:07.233Z,47.31
2023-02-01T22:51:34.219Z,47.17
2023-02-01T22:54:01.634Z,47.65
2023-02-01T22:56:37.640Z,48.22
2023-02-01T22:59:10.817Z,47.85
2023-02-01T23:01:37.935Z,48.82
2023-02-01T23:04:07.023Z,48.80
2023-02-01T23:06:34.877Z,48.62
2023-02-01T23:09:06.299Z,48.59
2023-02-01T23:11:33.233Z,48.42
2023-02-01T23:14:00.171Z,49.13
2023-02-01T23:16:27.123Z,49.07
2023-02-01T23:18:57.724Z,49.07
2023-02-01T23:21:31.068Z,48.96
2023-02-01T23:24:01.257Z,49.54
2023-02-01T23:26:59.428Z,49.54
2023-02-01T23:29:55.602Z,49.98
2023-02-01T23:32:22.588Z,49.18
2023-02-01T23:35:14.956Z,50.36
2023-02-01T23:38:17.613Z,50.13
2023-02-01T23:40:44.565Z,49.48
2023-02-01T23:43:30.239Z,49.33
2023-02-01T23:46:03.359Z,49.74
2023-02-01T23:49:08.155Z,50.11
2023-02-01T23:51:40.990Z,49.38
2023-02-01T23:54:10.165Z,48.98
2023-02-01T23:56:40.372Z,49.43
2023-02-01T23:59:16.011Z,49.68
